ロサンゼルス の空港の天気 - METARとTAF

ロサンゼルス国際空港 ( KLAX / LAX ) - アメリカ カリフォルニア州ロサンゼルス
飛行場実況気象(Metar)
観測時間12/15 03:53 PST (12/15 11:53 UTC)
風向・風速東北東 2m/s
視程10km以上
天気現象
なし
気温11.7℃
湿度59%
気圧1018.1hPa
METARKLAX 151153Z 07004KT 10SM CLR 12/04 A3007 RMK AO2 SLP181 T01170039 10167 20117 58010
過去の天気等 Google飛行場航空写真 Wunderground天気予報

過去48時間のMETAR

飛行場予報(TAF)
発表時間: 12/15 03:24 PST (12/15 11:24 UTC)
予報対象時間: 15日4時 PST ~ 16日10時 PST
風向・風速不定 2m/s
視程10km以上
全天の4割程度の雲 雲底高度 6100m
15日12時 PST から
風向・風速西 5m/s
視程10km以上
なし
15日20時 PST から
風向・風速不定 2m/s
視程10km以上
なし
KLAX 151124Z 1512/1618 VRB03KT P6SM SCT200
FM152000 27010KT P6SM SKC
FM160400 VRB03KT P6SM SKC